Terminal Aerodrome Forecast
Issued by NWS Sioux Falls, SD

Home | Current Version | Previous Version | Graphics & Text | Print | Product List | Glossary Off
Versions: 1 2 3 4 5 6 7 8 9 10 11 12 13

593
FTUS43 KFSD 191723
TAFHON
TAF
KHON 191723Z 1918/2018 03008KT P6SM SCT030 OVC200
     FM192100 03007KT P6SM BKN150
     FM200200 VRB04KT P6SM OVC090
     FM200700 VRB03KT P6SM OVC050
     FM201400 35007KT P6SM BKN060=

USA.gov is the U.S. government's official web portal to all federal, state and local government web resources and services.